createdAt,value
2018-08-09T00:01:01.197Z,20.60
2018-08-09T00:03:29.366Z,20.50
2018-08-09T00:05:57.568Z,20.50
2018-08-09T00:08:25.741Z,20.50
2018-08-09T00:10:53.900Z,20.50
2018-08-09T00:13:22.080Z,20.40
2018-08-09T00:15:50.254Z,20.10
2018-08-09T00:18:18.409Z,20.10
2018-08-09T00:20:46.575Z,20.00
2018-08-09T00:23:14.717Z,19.90
2018-08-09T00:25:42.881Z,19.90
2018-08-09T00:28:11.052Z,20.00
2018-08-09T00:30:39.220Z,20.10
2018-08-09T00:33:07.372Z,20.10
2018-08-09T00:35:35.652Z,20.20
2018-08-09T00:38:03.860Z,20.30
2018-08-09T00:40:32.024Z,20.20
2018-08-09T00:43:00.177Z,20.20
2018-08-09T00:45:28.338Z,20.20
2018-08-09T00:47:56.511Z,20.10
2018-08-09T00:50:24.671Z,20.10
2018-08-09T00:52:52.845Z,20.20
2018-08-09T00:55:21.008Z,20.30
2018-08-09T00:57:49.225Z,20.30
2018-08-09T01:00:17.350Z,20.40
2018-08-09T01:02:45.513Z,20.30
2018-08-09T01:05:13.690Z,20.30
2018-08-09T01:07:42.030Z,20.20
2018-08-09T01:10:10.205Z,20.20
2018-08-09T01:12:38.349Z,20.10
2018-08-09T01:15:06.530Z,20.00
2018-08-09T01:17:34.672Z,19.90
2018-08-09T01:20:02.848Z,19.80
2018-08-09T01:22:31.001Z,19.90
2018-08-09T01:24:59.178Z,19.90
2018-08-09T01:27:27.351Z,19.90
2018-08-09T01:29:55.492Z,19.80
2018-08-09T01:32:23.649Z,19.80
2018-08-09T01:34:51.797Z,19.80
2018-08-09T01:37:19.948Z,19.80
2018-08-09T01:39:48.111Z,19.80
2018-08-09T01:42:27.755Z,19.80
2018-08-09T01:44:55.917Z,19.70
2018-08-09T01:47:24.091Z,19.50
2018-08-09T01:49:52.242Z,19.40
2018-08-09T01:52:20.382Z,19.30
2018-08-09T01:54:48.558Z,19.40
2018-08-09T01:57:16.714Z,19.30
2018-08-09T01:59:44.876Z,19.40
2018-08-09T02:02:13.009Z,19.40
2018-08-09T02:04:41.195Z,19.40
2018-08-09T02:07:09.354Z,19.40
2018-08-09T02:09:37.540Z,19.50
2018-08-09T02:12:05.693Z,19.50
2018-08-09T02:14:33.865Z,19.40
2018-08-09T02:17:02.098Z,19.40
2018-08-09T02:19:30.613Z,19.40
2018-08-09T02:21:58.769Z,19.30
2018-08-09T02:24:26.977Z,19.30
2018-08-09T02:26:55.125Z,19.20
2018-08-09T02:29:23.267Z,19.10
2018-08-09T02:31:51.424Z,19.10
2018-08-09T02:34:19.558Z,19.10
2018-08-09T02:36:47.700Z,19.10
2018-08-09T02:39:15.850Z,19.00
2018-08-09T02:41:44.009Z,19.00
2018-08-09T02:44:12.157Z,19.00
2018-08-09T02:46:40.373Z,19.00
2018-08-09T02:49:08.493Z,18.90
2018-08-09T02:51:36.625Z,19.00
2018-08-09T02:54:04.776Z,19.00
2018-08-09T02:56:32.921Z,19.10
2018-08-09T02:59:01.063Z,19.10
2018-08-09T03:01:29.213Z,19.10
2018-08-09T03:03:57.364Z,19.10
2018-08-09T03:06:25.513Z,19.00
2018-08-09T03:08:53.649Z,19.00
2018-08-09T03:11:21.784Z,19.00
2018-08-09T03:13:49.957Z,18.90
2018-08-09T03:16:18.085Z,18.90
2018-08-09T03:18:46.213Z,18.70
2018-08-09T03:21:14.366Z,18.60
2018-08-09T03:23:42.513Z,18.50
2018-08-09T03:26:10.670Z,18.40
2018-08-09T03:28:38.806Z,18.40
2018-08-09T03:31:06.972Z,18.50
2018-08-09T03:33:35.112Z,18.40
2018-08-09T03:36:03.296Z,18.50
2018-08-09T03:38:31.434Z,18.50
2018-08-09T03:40:59.581Z,18.50
2018-08-09T03:43:28.260Z,18.50
2018-08-09T03:45:56.416Z,18.50
2018-08-09T03:48:24.749Z,18.50
2018-08-09T03:50:52.898Z,18.50
2018-08-09T03:53:21.065Z,18.50
2018-08-09T03:55:49.222Z,18.20
2018-08-09T03:58:17.435Z,18.20
2018-08-09T04:00:45.520Z,18.20
2018-08-09T04:03:13.679Z,18.30
2018-08-09T04:05:41.841Z,18.30
2018-08-09T04:08:10.010Z,18.30
2018-08-09T04:10:38.168Z,18.40
2018-08-09T04:13:06.321Z,18.40
2018-08-09T04:15:34.469Z,18.50
2018-08-09T04:18:02.651Z,18.50
2018-08-09T04:20:30.797Z,18.60
2018-08-09T04:22:58.960Z,18.60
2018-08-09T04:25:27.104Z,18.60
2018-08-09T04:27:55.261Z,18.80
2018-08-09T04:30:23.415Z,18.80
2018-08-09T04:32:51.597Z,18.80
2018-08-09T04:35:19.772Z,18.90
2018-08-09T04:37:47.957Z,19.00
2018-08-09T04:40:16.157Z,18.90
2018-08-09T04:42:44.324Z,19.80
2018-08-09T04:45:13.369Z,18.70
2018-08-09T04:47:41.563Z,18.70
2018-08-09T04:50:09.758Z,18.70
2018-08-09T04:52:37.885Z,18.80
2018-08-09T04:55:06.117Z,18.80
2018-08-09T04:57:34.279Z,18.90
2018-08-09T05:00:02.429Z,19.00
2018-08-09T05:02:30.569Z,19.20
2018-08-09T05:04:58.709Z,19.30
2018-08-09T05:07:26.873Z,19.30
2018-08-09T05:09:55.094Z,19.40
2018-08-09T05:12:23.253Z,19.60
2018-08-09T05:14:51.412Z,19.70
2018-08-09T05:17:19.562Z,19.80
2018-08-09T05:19:47.733Z,19.70
2018-08-09T05:22:15.887Z,19.60
2018-08-09T05:24:44.056Z,19.60
2018-08-09T05:27:12.225Z,19.70
2018-08-09T05:29:40.378Z,19.90
2018-08-09T05:32:08.531Z,20.00
2018-08-09T05:34:36.685Z,20.20
2018-08-09T05:37:04.856Z,20.30
2018-08-09T05:39:33.035Z,20.40
2018-08-09T05:42:01.190Z,20.30
2018-08-09T05:44:29.355Z,20.30
2018-08-09T05:46:57.513Z,20.40
2018-08-09T05:49:25.659Z,20.30
2018-08-09T05:51:53.828Z,20.20
2018-08-09T05:54:21.991Z,20.30
2018-08-09T05:56:50.142Z,20.30
2018-08-09T05:59:18.303Z,20.30
2018-08-09T06:01:46.446Z,20.30
2018-08-09T06:04:14.644Z,20.30
2018-08-09T06:06:42.808Z,20.40
2018-08-09T06:09:12.252Z,20.40
2018-08-09T06:11:40.422Z,20.50
2018-08-09T06:14:09.352Z,20.60
2018-08-09T06:16:37.538Z,20.70
2018-08-09T06:19:06.290Z,21.20
2018-08-09T06:21:34.435Z,22.40
2018-08-09T06:24:02.609Z,23.20
2018-08-09T06:26:30.781Z,22.40
2018-08-09T06:28:58.938Z,21.80
2018-08-09T06:31:27.093Z,21.70
2018-08-09T06:33:55.224Z,22.30
2018-08-09T06:36:23.506Z,23.70
2018-08-09T06:38:51.650Z,25.90
2018-08-09T06:41:19.797Z,26.80
2018-08-09T06:43:47.956Z,27.70
2018-08-09T06:46:16.097Z,27.60
2018-08-09T06:48:44.264Z,26.90
2018-08-09T06:51:12.420Z,27.30
2018-08-09T06:53:40.585Z,27.60
2018-08-09T06:56:08.761Z,28.00
2018-08-09T06:58:36.924Z,27.70
2018-08-09T07:01:05.104Z,28.80
2018-08-09T07:03:33.262Z,29.20
2018-08-09T07:06:01.424Z,29.60
2018-08-09T07:08:29.585Z,29.80
2018-08-09T07:10:57.761Z,28.80
2018-08-09T07:13:25.929Z,29.00
2018-08-09T07:15:54.126Z,28.40
2018-08-09T07:18:22.300Z,28.20
2018-08-09T07:20:50.483Z,28.00
2018-08-09T07:23:18.637Z,28.00
2018-08-09T07:25:46.809Z,28.70
2018-08-09T07:28:15.001Z,28.50
2018-08-09T07:30:43.165Z,28.50
2018-08-09T07:33:11.322Z,28.50
2018-08-09T07:35:39.456Z,28.70
2018-08-09T07:38:07.605Z,29.00
2018-08-09T07:40:36.962Z,29.20
2018-08-09T07:43:05.133Z,28.90
2018-08-09T07:45:33.341Z,28.60
2018-08-09T07:48:01.954Z,29.20
2018-08-09T07:50:30.145Z,28.90
2018-08-09T07:52:58.340Z,28.20
2018-08-09T07:55:26.481Z,28.50
2018-08-09T07:57:54.650Z,28.50
2018-08-09T08:00:22.782Z,28.50
2018-08-09T08:02:50.957Z,29.00
2018-08-09T08:05:19.122Z,28.50
2018-08-09T08:07:47.381Z,28.50
2018-08-09T08:10:15.509Z,28.40
2018-08-09T08:12:43.662Z,28.30
2018-08-09T08:15:11.961Z,28.70
2018-08-09T08:17:40.297Z,28.70
2018-08-09T08:20:08.923Z,28.30
2018-08-09T08:22:37.138Z,28.40
2018-08-09T08:25:05.817Z,28.80
2018-08-09T08:27:33.965Z,28.90
2018-08-09T08:30:02.167Z,28.80
2018-08-09T08:32:30.352Z,29.20
2018-08-09T08:34:58.537Z,29.70
2018-08-09T08:37:26.709Z,29.90
2018-08-09T08:39:54.872Z,29.90
2018-08-09T08:42:23.036Z,30.20
2018-08-09T08:44:51.245Z,30.60
2018-08-09T08:47:19.435Z,30.80
2018-08-09T08:49:47.592Z,31.70
2018-08-09T08:52:15.766Z,31.80
2018-08-09T08:54:43.945Z,32.00
2018-08-09T08:57:12.105Z,31.80
2018-08-09T08:59:40.302Z,32.80
2018-08-09T09:02:08.468Z,33.20
2018-08-09T09:04:36.692Z,32.60
2018-08-09T09:07:04.928Z,32.50
2018-08-09T09:09:33.073Z,32.70
2018-08-09T09:12:01.284Z,33.20
2018-08-09T09:14:29.471Z,33.10
2018-08-09T09:16:57.625Z,32.90
2018-08-09T09:19:25.834Z,34.20
2018-08-09T09:21:54.005Z,34.00
2018-08-09T09:24:22.182Z,33.50
2018-08-09T09:26:50.387Z,34.90
2018-08-09T09:29:18.568Z,32.90
2018-08-09T09:31:46.760Z,32.70
2018-08-09T09:34:14.952Z,32.80
2018-08-09T09:36:43.119Z,32.70
2018-08-09T09:39:11.427Z,31.90
2018-08-09T09:41:39.978Z,31.90
2018-08-09T09:44:08.243Z,32.70
2018-08-09T09:46:36.429Z,32.60
2018-08-09T09:49:04.671Z,34.00
2018-08-09T09:51:32.836Z,34.40
2018-08-09T09:54:01.004Z,34.80
2018-08-09T09:56:29.170Z,33.40
2018-08-09T09:58:57.347Z,33.10
2018-08-09T10:01:30.961Z,34.30
2018-08-09T10:03:59.146Z,34.70
2018-08-09T10:06:27.311Z,34.50
2018-08-09T10:08:55.493Z,35.00
2018-08-09T10:11:23.648Z,34.70
2018-08-09T10:13:51.871Z,33.20
2018-08-09T10:16:20.019Z,33.40
2018-08-09T10:18:48.279Z,35.10
2018-08-09T10:21:16.521Z,35.80
2018-08-09T10:23:44.700Z,34.90
2018-08-09T10:26:12.877Z,34.80
2018-08-09T10:28:41.074Z,34.70
2018-08-09T10:31:09.519Z,36.40
2018-08-09T10:33:37.689Z,37.20
2018-08-09T10:36:05.867Z,36.60
2018-08-09T10:38:34.061Z,36.10
2018-08-09T10:41:02.236Z,36.50
2018-08-09T10:43:30.401Z,35.20
2018-08-09T10:45:58.621Z,35.20
2018-08-09T10:48:26.860Z,33.70
2018-08-09T10:50:55.039Z,34.10
2018-08-09T10:53:23.349Z,35.70
2018-08-09T10:55:51.552Z,35.10
2018-08-09T10:58:22.779Z,34.40
2018-08-09T11:00:51.036Z,36.90
2018-08-09T11:03:19.208Z,36.50
2018-08-09T11:05:47.632Z,35.10
2018-08-09T11:08:16.600Z,35.30
2018-08-09T11:10:44.765Z,34.60
2018-08-09T11:13:12.931Z,35.50
2018-08-09T11:15:41.109Z,34.80
2018-08-09T11:18:09.295Z,35.10
2018-08-09T11:20:37.449Z,34.60
2018-08-09T11:23:05.800Z,35.90
2018-08-09T11:25:34.875Z,36.50
2018-08-09T11:28:03.386Z,36.00
2018-08-09T11:30:31.564Z,35.10
2018-08-09T11:32:59.718Z,35.10
2018-08-09T11:35:27.868Z,34.10
2018-08-09T11:37:55.995Z,34.50
2018-08-09T11:40:24.138Z,35.70
2018-08-09T11:42:52.270Z,36.40
2018-08-09T11:45:20.393Z,37.60
2018-08-09T11:47:48.537Z,37.40
2018-08-09T11:50:16.711Z,36.50
2018-08-09T11:52:44.869Z,35.00
2018-08-09T11:55:12.990Z,36.10
2018-08-09T11:57:41.130Z,37.20
2018-08-09T12:00:09.278Z,35.10
2018-08-09T12:02:37.425Z,34.30
2018-08-09T12:05:05.569Z,34.40
2018-08-09T12:07:33.720Z,35.80
2018-08-09T12:10:01.873Z,35.50
2018-08-09T12:12:30.001Z,35.20
2018-08-09T12:14:58.173Z,34.10
2018-08-09T12:17:26.293Z,35.00
2018-08-09T12:19:54.429Z,33.50
2018-08-09T12:22:22.574Z,34.70
2018-08-09T12:24:50.705Z,35.90
2018-08-09T12:27:18.878Z,35.90
2018-08-09T12:29:47.046Z,34.80
2018-08-09T12:32:15.204Z,33.90
2018-08-09T12:34:43.341Z,34.70
2018-08-09T12:37:11.483Z,34.60
2018-08-09T12:39:39.617Z,34.30
2018-08-09T12:42:07.818Z,35.10
2018-08-09T12:44:36.010Z,35.20
2018-08-09T12:47:04.170Z,34.80
2018-08-09T12:49:32.432Z,35.40
2018-08-09T12:52:00.566Z,36.80
2018-08-09T12:54:28.734Z,35.80
2018-08-09T12:56:56.877Z,35.80
2018-08-09T12:59:25.023Z,36.60
2018-08-09T13:01:53.174Z,37.00
2018-08-09T13:04:21.328Z,36.10
2018-08-09T13:06:59.190Z,34.40
2018-08-09T13:09:27.308Z,35.50
2018-08-09T13:11:55.464Z,36.70
2018-08-09T13:14:23.651Z,36.50
2018-08-09T13:16:51.805Z,35.20
2018-08-09T13:19:19.953Z,35.50
2018-08-09T13:21:48.076Z,36.10
2018-08-09T13:24:16.252Z,35.70
2018-08-09T13:26:44.384Z,35.80
2018-08-09T13:29:12.624Z,34.90
2018-08-09T13:31:40.762Z,34.60
2018-08-09T13:34:09.196Z,34.60
2018-08-09T13:36:37.402Z,34.50
2018-08-09T13:39:09.356Z,34.70
2018-08-09T13:41:37.594Z,34.40
2018-08-09T13:44:06.036Z,30.60
2018-08-09T13:46:34.356Z,29.40
2018-08-09T13:49:02.530Z,28.60
2018-08-09T13:51:30.787Z,28.30
2018-08-09T13:53:58.901Z,28.10
2018-08-09T13:56:27.066Z,27.70
2018-08-09T13:58:55.237Z,27.40
2018-08-09T14:01:23.392Z,27.10
2018-08-09T14:03:51.632Z,26.00
2018-08-09T14:06:19.824Z,24.60
2018-08-09T14:08:47.981Z,23.70
2018-08-09T14:11:16.177Z,23.40
2018-08-09T14:13:44.328Z,23.50
2018-08-09T14:16:12.511Z,23.40
2018-08-09T14:18:40.645Z,23.40
2018-08-09T14:21:08.898Z,23.60
2018-08-09T14:23:37.223Z,23.40
2018-08-09T14:26:05.447Z,23.40
2018-08-09T14:28:33.771Z,23.40
2018-08-09T14:31:02.091Z,23.50
2018-08-09T14:33:30.367Z,23.80
2018-08-09T14:35:58.686Z,24.00
2018-08-09T14:38:26.996Z,24.00
2018-08-09T14:40:55.650Z,24.00
2018-08-09T14:43:23.980Z,24.00
2018-08-09T14:45:52.258Z,24.10
2018-08-09T14:48:20.574Z,24.00
2018-08-09T14:50:48.876Z,24.00
2018-08-09T14:53:17.290Z,24.00
2018-08-09T14:55:45.774Z,24.40
2018-08-09T14:58:13.968Z,24.40
2018-08-09T15:00:42.121Z,24.50
2018-08-09T15:03:10.298Z,24.80
2018-08-09T15:05:38.651Z,24.70
2018-08-09T15:08:06.780Z,24.80
2018-08-09T15:10:34.930Z,24.80
2018-08-09T15:13:03.105Z,24.80
2018-08-09T15:15:31.356Z,24.70
2018-08-09T15:17:59.512Z,24.60
2018-08-09T15:20:27.696Z,24.50
2018-08-09T15:22:56.104Z,24.40
2018-08-09T15:25:25.346Z,24.40
2018-08-09T15:27:53.611Z,24.40
2018-08-09T15:30:22.143Z,24.40
2018-08-09T15:32:50.379Z,24.50
2018-08-09T15:35:18.809Z,24.20
2018-08-09T15:37:47.022Z,24.30
2018-08-09T15:40:15.723Z,24.50
2018-08-09T15:42:44.071Z,24.70
2018-08-09T15:45:13.600Z,24.70
2018-08-09T15:47:42.196Z,24.70
2018-08-09T15:50:12.474Z,24.80
2018-08-09T15:52:40.953Z,24.60
2018-08-09T15:55:09.341Z,24.60
2018-08-09T15:57:37.664Z,24.70
2018-08-09T16:00:09.046Z,24.80
2018-08-09T16:02:37.368Z,24.80
2018-08-09T16:05:06.206Z,24.80
2018-08-09T16:07:34.412Z,24.60
2018-08-09T16:10:02.598Z,24.50
2018-08-09T16:12:30.780Z,24.70
2018-08-09T16:14:59.140Z,24.80
2018-08-09T16:17:27.418Z,24.80
2018-08-09T16:19:55.571Z,24.60
2018-08-09T16:22:23.762Z,24.70
2018-08-09T16:24:52.036Z,25.00
2018-08-09T16:27:20.209Z,25.00
2018-08-09T16:29:48.410Z,25.10
2018-08-09T16:32:16.849Z,25.20
2018-08-09T16:34:45.022Z,25.10
2018-08-09T16:37:13.250Z,24.90
2018-08-09T16:39:41.387Z,24.80
2018-08-09T16:42:09.593Z,24.80
2018-08-09T16:44:38.188Z,24.50
2018-08-09T16:47:06.417Z,24.50
2018-08-09T16:49:34.591Z,24.60
2018-08-09T16:52:17.754Z,24.70
2018-08-09T16:54:46.374Z,24.40
2018-08-09T16:57:14.917Z,24.50
2018-08-09T16:59:43.085Z,24.60
2018-08-09T17:02:11.750Z,24.60
2018-08-09T17:04:39.989Z,24.60
2018-08-09T17:07:08.275Z,24.30
2018-08-09T17:09:36.434Z,24.30
2018-08-09T17:12:04.619Z,24.30
2018-08-09T17:14:32.779Z,24.20
2018-08-09T17:17:00.939Z,24.30
2018-08-09T17:19:29.109Z,24.30
2018-08-09T17:21:57.293Z,24.40
2018-08-09T17:24:28.158Z,24.30
2018-08-09T17:26:56.317Z,24.30
2018-08-09T17:29:24.514Z,24.10
2018-08-09T17:31:52.713Z,24.10
2018-08-09T17:34:20.929Z,24.00
2018-08-09T17:36:49.138Z,23.80
2018-08-09T17:39:17.297Z,23.80
2018-08-09T17:41:45.485Z,23.70
2018-08-09T17:44:13.659Z,23.60
2018-08-09T17:46:41.832Z,23.60
2018-08-09T17:49:10.013Z,23.50
2018-08-09T17:51:38.174Z,23.40
2018-08-09T17:54:06.325Z,23.70
2018-08-09T17:56:34.511Z,23.70
2018-08-09T17:59:02.669Z,23.90
2018-08-09T18:01:30.842Z,24.00
2018-08-09T18:03:59.014Z,23.80
2018-08-09T18:06:27.189Z,23.80
2018-08-09T18:08:55.356Z,23.10
2018-08-09T18:11:23.540Z,22.70
2018-08-09T18:13:51.693Z,22.30
2018-08-09T18:16:19.865Z,22.00
2018-08-09T18:18:48.029Z,21.70
2018-08-09T18:21:16.462Z,21.60
2018-08-09T18:23:44.621Z,21.70
2018-08-09T18:26:12.870Z,21.50
2018-08-09T18:29:52.365Z,21.30
2018-08-09T18:32:20.509Z,21.30
2018-08-09T18:34:48.637Z,21.30
2018-08-09T18:37:16.792Z,21.30
2018-08-09T18:39:44.930Z,21.10
2018-08-09T18:42:13.088Z,21.00
2018-08-09T18:44:41.213Z,20.80
2018-08-09T18:47:09.368Z,20.90
2018-08-09T18:49:37.581Z,20.90
2018-08-09T18:52:05.712Z,20.80
2018-08-09T18:54:33.859Z,20.80
2018-08-09T18:57:02.010Z,20.80
2018-08-09T18:59:30.185Z,20.80
2018-08-09T19:02:00.577Z,20.90
2018-08-09T19:04:28.773Z,20.90
2018-08-09T19:06:56.914Z,20.90
2018-08-09T19:09:25.068Z,20.80
2018-08-09T19:11:53.204Z,20.80
2018-08-09T19:14:21.377Z,20.90
2018-08-09T19:16:49.533Z,20.80
2018-08-09T19:19:17.689Z,20.60
2018-08-09T19:21:45.841Z,20.80
2018-08-09T19:24:13.975Z,20.80
2018-08-09T19:26:42.119Z,20.90
2018-08-09T19:29:10.293Z,21.10
2018-08-09T19:31:38.448Z,20.90
2018-08-09T19:34:06.633Z,20.70
2018-08-09T19:36:34.930Z,20.80
2018-08-09T19:39:03.532Z,20.80
2018-08-09T19:41:31.639Z,20.80
2018-08-09T19:43:59.826Z,20.60
2018-08-09T19:46:28.061Z,20.50
2018-08-09T19:48:56.248Z,20.60
2018-08-09T19:51:24.485Z,20.70
2018-08-09T19:53:52.672Z,20.70
2018-08-09T19:56:20.827Z,20.80
2018-08-09T19:58:48.981Z,20.80
2018-08-09T20:01:17.141Z,20.70
2018-08-09T20:03:45.329Z,20.60
2018-08-09T20:06:13.505Z,20.60
2018-08-09T20:08:41.666Z,20.50
2018-08-09T20:11:09.869Z,20.40
2018-08-09T20:13:38.086Z,20.30
2018-08-09T20:16:06.264Z,20.30
2018-08-09T20:18:34.440Z,20.20
2018-08-09T20:21:02.601Z,20.50
2018-08-09T20:23:30.773Z,20.50
2018-08-09T20:25:58.992Z,20.40
2018-08-09T20:28:27.118Z,20.40
2018-08-09T20:30:55.286Z,20.30
2018-08-09T20:33:23.497Z,20.20
2018-08-09T20:35:51.669Z,20.10
2018-08-09T20:38:19.853Z,20.00
2018-08-09T20:40:48.017Z,19.90
2018-08-09T20:43:16.197Z,19.80
2018-08-09T20:45:44.360Z,19.90
2018-08-09T20:48:12.548Z,19.80
2018-08-09T20:50:40.722Z,19.70
2018-08-09T20:53:08.913Z,19.70
2018-08-09T20:55:37.110Z,19.60
2018-08-09T20:58:05.377Z,19.60
2018-08-09T21:00:34.777Z,19.50
2018-08-09T21:03:03.180Z,19.50
2018-08-09T21:05:35.948Z,19.50
2018-08-09T21:08:04.217Z,19.50
2018-08-09T21:10:32.408Z,19.40
2018-08-09T21:13:00.595Z,19.40
2018-08-09T21:15:28.868Z,19.40
2018-08-09T21:17:57.009Z,19.30
2018-08-09T21:20:25.190Z,19.30
2018-08-09T21:22:53.349Z,19.20
2018-08-09T21:25:21.529Z,19.20
2018-08-09T21:27:49.918Z,19.20
2018-08-09T21:30:19.322Z,19.20
2018-08-09T21:32:47.944Z,19.20
2018-08-09T21:35:16.133Z,19.20
2018-08-09T21:37:44.760Z,19.20
2018-08-09T21:40:13.661Z,19.30
2018-08-09T21:42:41.852Z,19.30
2018-08-09T21:45:19.020Z,19.40
2018-08-09T21:47:47.159Z,19.50
2018-08-09T21:50:17.825Z,19.50
2018-08-09T21:52:46.095Z,19.40
2018-08-09T21:55:14.570Z,19.50
2018-08-09T21:57:43.566Z,19.40
2018-08-09T22:00:23.225Z,19.40
2018-08-09T22:02:51.364Z,19.40
2018-08-09T22:05:24.781Z,19.40
2018-08-09T22:07:58.350Z,19.40
2018-08-09T22:10:31.863Z,19.30
2018-08-09T22:13:05.348Z,19.30
2018-08-09T22:15:38.910Z,19.40
2018-08-09T22:18:12.589Z,19.40
2018-08-09T22:20:46.223Z,19.30
2018-08-09T22:23:14.320Z,19.40
2018-08-09T22:25:42.484Z,19.40
2018-08-09T22:28:10.624Z,19.40
2018-08-09T22:30:38.801Z,19.40
2018-08-09T22:33:06.984Z,19.30
2018-08-09T22:35:35.152Z,19.30
2018-08-09T22:38:03.333Z,19.30
2018-08-09T22:40:31.493Z,19.30
2018-08-09T22:42:59.668Z,19.30
2018-08-09T22:45:27.846Z,19.30
2018-08-09T22:47:55.985Z,19.40
2018-08-09T22:50:24.165Z,19.40
2018-08-09T22:52:52.329Z,19.40
2018-08-09T22:55:20.484Z,19.40
2018-08-09T22:57:48.645Z,19.40
2018-08-09T23:00:20.788Z,19.30
2018-08-09T23:02:49.214Z,19.40
2018-08-09T23:05:17.469Z,19.40
2018-08-09T23:07:45.620Z,19.40
2018-08-09T23:10:13.901Z,19.40
2018-08-09T23:12:42.521Z,19.50
2018-08-09T23:15:10.727Z,19.50
2018-08-09T23:17:39.020Z,19.50
2018-08-09T23:20:08.168Z,19.50
2018-08-09T23:22:36.313Z,19.50
2018-08-09T23:25:07.893Z,19.60
2018-08-09T23:27:36.054Z,19.60
2018-08-09T23:30:05.670Z,19.60
2018-08-09T23:32:33.852Z,19.60
2018-08-09T23:35:02.006Z,19.60
2018-08-09T23:37:30.165Z,19.60
2018-08-09T23:39:58.305Z,19.60
2018-08-09T23:42:26.516Z,19.90
2018-08-09T23:44:54.765Z,20.00
2018-08-09T23:47:22.936Z,20.10
2018-08-09T23:49:51.129Z,20.10
2018-08-09T23:52:19.293Z,20.10
2018-08-09T23:54:47.468Z,20.00
2018-08-09T23:57:15.641Z,19.90
2018-08-09T23:59:43.940Z,19.90
